Terminal Aerodrome Forecast
Issued by NWS Cleveland, OH

Home | Current Version | Previous Version | Text Only | Print | Product List | Glossary On
Versions: 1 2 3 4 5 6 7 8 9 10 11 12 13 14 15 16 17 18 19 20 21
000
FTUS41 KCLE 282300
TAFYNG
TAF
KYNG 282340Z 2900/2924 31004KT P6SM BKN035
     FM290200 30006KT P6SM SCT035
     FM290900 33004KT P6SM BKN028
     FM291700 34006KT P6SM BKN035=

USA.gov is the U.S. government's official web portal to all federal, state and local government web resources and services.